sensor_id;sensor_type;location;lat;lon;timestamp;P1;durP1;ratioP1;P2;durP2;ratioP2
30707;SDS011;17458;48.958;8.284;2023-09-30T00:00:45;5.57;;;1.92;;
30707;SDS011;17458;48.958;8.284;2023-09-30T00:03:29;2.28;;;1.73;;
30707;SDS011;17458;48.958;8.284;2023-09-30T00:06:13;5.30;;;2.08;;
30707;SDS011;17458;48.958;8.284;2023-09-30T00:08:57;5.72;;;2.03;;
30707;SDS011;17458;48.958;8.284;2023-09-30T00:11:41;3.13;;;1.48;;
30707;SDS011;17458;48.958;8.284;2023-09-30T00:14:25;2.00;;;1.50;;
30707;SDS011;17458;48.958;8.284;2023-09-30T00:17:09;3.53;;;1.80;;
30707;SDS011;17458;48.958;8.284;2023-09-30T00:19:54;1.50;;;1.40;;
30707;SDS011;17458;48.958;8.284;2023-09-30T00:22:37;4.30;;;1.88;;
30707;SDS011;17458;48.958;8.284;2023-09-30T00:25:22;3.65;;;1.80;;
30707;SDS011;17458;48.958;8.284;2023-09-30T00:28:06;6.43;;;2.15;;
30707;SDS011;17458;48.958;8.284;2023-09-30T00:30:50;2.08;;;1.33;;
30707;SDS011;17458;48.958;8.284;2023-09-30T00:33:34;5.28;;;1.58;;
30707;SDS011;17458;48.958;8.284;2023-09-30T00:36:18;2.63;;;1.55;;
30707;SDS011;17458;48.958;8.284;2023-09-30T00:39:03;3.88;;;1.80;;
30707;SDS011;17458;48.958;8.284;2023-09-30T00:41:48;5.20;;;2.35;;
30707;SDS011;17458;48.958;8.284;2023-09-30T00:44:32;3.67;;;1.73;;
30707;SDS011;17458;48.958;8.284;2023-09-30T00:47:17;2.38;;;1.52;;
30707;SDS011;17458;48.958;8.284;2023-09-30T00:50:01;4.18;;;1.58;;
30707;SDS011;17458;48.958;8.284;2023-09-30T00:52:47;3.03;;;1.52;;
30707;SDS011;17458;48.958;8.284;2023-09-30T00:55:32;4.47;;;1.63;;
30707;SDS011;17458;48.958;8.284;2023-09-30T00:58:17;4.30;;;1.75;;
30707;SDS011;17458;48.958;8.284;2023-09-30T01:01:02;3.28;;;2.03;;
30707;SDS011;17458;48.958;8.284;2023-09-30T01:03:47;3.00;;;1.25;;
30707;SDS011;17458;48.958;8.284;2023-09-30T01:06:31;6.65;;;1.70;;
30707;SDS011;17458;48.958;8.284;2023-09-30T01:09:15;3.97;;;1.75;;
30707;SDS011;17458;48.958;8.284;2023-09-30T01:11:59;3.58;;;1.83;;
30707;SDS011;17458;48.958;8.284;2023-09-30T01:14:43;3.97;;;1.52;;
30707;SDS011;17458;48.958;8.284;2023-09-30T01:17:28;6.20;;;1.80;;
30707;SDS011;17458;48.958;8.284;2023-09-30T01:20:13;2.88;;;1.70;;
30707;SDS011;17458;48.958;8.284;2023-09-30T01:23:03;2.63;;;1.65;;
30707;SDS011;17458;48.958;8.284;2023-09-30T01:25:47;2.45;;;1.60;;
30707;SDS011;17458;48.958;8.284;2023-09-30T01:28:33;5.00;;;2.08;;
30707;SDS011;17458;48.958;8.284;2023-09-30T01:31:17;2.50;;;1.63;;
30707;SDS011;17458;48.958;8.284;2023-09-30T01:34:01;7.10;;;1.60;;
30707;SDS011;17458;48.958;8.284;2023-09-30T01:36:45;2.92;;;2.00;;
30707;SDS011;17458;48.958;8.284;2023-09-30T01:39:30;3.58;;;1.58;;
30707;SDS011;17458;48.958;8.284;2023-09-30T01:42:14;3.30;;;1.42;;
30707;SDS011;17458;48.958;8.284;2023-09-30T01:44:58;6.03;;;1.95;;
30707;SDS011;17458;48.958;8.284;2023-09-30T01:47:42;2.42;;;1.55;;
30707;SDS011;17458;48.958;8.284;2023-09-30T01:50:26;3.00;;;1.63;;
30707;SDS011;17458;48.958;8.284;2023-09-30T01:53:10;3.75;;;2.25;;
30707;SDS011;17458;48.958;8.284;2023-09-30T01:55:54;6.32;;;2.50;;
30707;SDS011;17458;48.958;8.284;2023-09-30T01:58:38;4.78;;;2.10;;
30707;SDS011;17458;48.958;8.284;2023-09-30T02:01:21;1.52;;;1.42;;
30707;SDS011;17458;48.958;8.284;2023-09-30T02:04:05;3.20;;;2.05;;
30707;SDS011;17458;48.958;8.284;2023-09-30T02:06:50;3.65;;;1.38;;
30707;SDS011;17458;48.958;8.284;2023-09-30T02:09:34;6.40;;;1.85;;
30707;SDS011;17458;48.958;8.284;2023-09-30T02:12:19;3.88;;;2.03;;
30707;SDS011;17458;48.958;8.284;2023-09-30T02:15:03;2.60;;;1.50;;
30707;SDS011;17458;48.958;8.284;2023-09-30T02:17:47;2.10;;;1.60;;
30707;SDS011;17458;48.958;8.284;2023-09-30T02:20:32;2.75;;;1.52;;
30707;SDS011;17458;48.958;8.284;2023-09-30T02:23:17;4.28;;;1.95;;
30707;SDS011;17458;48.958;8.284;2023-09-30T02:26:03;2.13;;;1.48;;
30707;SDS011;17458;48.958;8.284;2023-09-30T02:28:47;3.03;;;1.85;;
30707;SDS011;17458;48.958;8.284;2023-09-30T02:31:31;5.97;;;1.48;;
30707;SDS011;17458;48.958;8.284;2023-09-30T02:34:16;6.97;;;2.10;;
30707;SDS011;17458;48.958;8.284;2023-09-30T02:37:00;4.78;;;2.05;;
30707;SDS011;17458;48.958;8.284;2023-09-30T02:39:46;3.67;;;1.73;;
30707;SDS011;17458;48.958;8.284;2023-09-30T02:42:30;6.45;;;2.22;;
30707;SDS011;17458;48.958;8.284;2023-09-30T02:45:15;1.95;;;1.52;;
30707;SDS011;17458;48.958;8.284;2023-09-30T02:48:01;2.50;;;1.80;;
30707;SDS011;17458;48.958;8.284;2023-09-30T02:50:45;2.47;;;1.65;;
30707;SDS011;17458;48.958;8.284;2023-09-30T02:53:29;5.75;;;2.40;;
30707;SDS011;17458;48.958;8.284;2023-09-30T02:56:13;3.28;;;1.65;;
30707;SDS011;17458;48.958;8.284;2023-09-30T02:58:58;5.22;;;2.00;;
30707;SDS011;17458;48.958;8.284;2023-09-30T03:01:43;3.53;;;1.50;;
30707;SDS011;17458;48.958;8.284;2023-09-30T03:04:27;1.95;;;1.52;;
30707;SDS011;17458;48.958;8.284;2023-09-30T03:07:12;9.02;;;2.53;;
30707;SDS011;17458;48.958;8.284;2023-09-30T03:09:57;4.05;;;2.00;;
30707;SDS011;17458;48.958;8.284;2023-09-30T03:12:42;7.45;;;2.55;;
30707;SDS011;17458;48.958;8.284;2023-09-30T03:15:26;3.20;;;2.20;;
30707;SDS011;17458;48.958;8.284;2023-09-30T03:18:10;3.35;;;1.95;;
30707;SDS011;17458;48.958;8.284;2023-09-30T03:21:01;4.80;;;1.92;;
30707;SDS011;17458;48.958;8.284;2023-09-30T03:23:49;6.18;;;2.03;;
30707;SDS011;17458;48.958;8.284;2023-09-30T03:26:33;2.45;;;1.90;;
30707;SDS011;17458;48.958;8.284;2023-09-30T03:29:17;3.90;;;2.33;;
30707;SDS011;17458;48.958;8.284;2023-09-30T03:32:01;5.68;;;2.00;;
30707;SDS011;17458;48.958;8.284;2023-09-30T03:34:45;4.05;;;1.50;;
30707;SDS011;17458;48.958;8.284;2023-09-30T03:37:30;3.97;;;2.22;;
30707;SDS011;17458;48.958;8.284;2023-09-30T03:40:16;4.65;;;2.03;;
30707;SDS011;17458;48.958;8.284;2023-09-30T03:43:02;4.60;;;2.00;;
30707;SDS011;17458;48.958;8.284;2023-09-30T03:45:47;5.25;;;1.70;;
30707;SDS011;17458;48.958;8.284;2023-09-30T03:48:31;4.07;;;2.38;;
30707;SDS011;17458;48.958;8.284;2023-09-30T03:51:15;2.50;;;1.55;;
30707;SDS011;17458;48.958;8.284;2023-09-30T03:53:59;2.90;;;2.05;;
30707;SDS011;17458;48.958;8.284;2023-09-30T03:56:46;4.07;;;2.33;;
30707;SDS011;17458;48.958;8.284;2023-09-30T03:59:31;3.00;;;1.75;;
30707;SDS011;17458;48.958;8.284;2023-09-30T04:02:15;2.65;;;1.77;;
30707;SDS011;17458;48.958;8.284;2023-09-30T04:04:59;6.50;;;2.03;;
30707;SDS011;17458;48.958;8.284;2023-09-30T04:07:47;3.47;;;2.00;;
30707;SDS011;17458;48.958;8.284;2023-09-30T04:10:31;3.80;;;2.45;;
30707;SDS011;17458;48.958;8.284;2023-09-30T04:13:15;4.90;;;2.20;;
30707;SDS011;17458;48.958;8.284;2023-09-30T04:16:00;3.90;;;2.10;;
30707;SDS011;17458;48.958;8.284;2023-09-30T04:18:45;3.60;;;2.00;;
30707;SDS011;17458;48.958;8.284;2023-09-30T04:21:30;2.25;;;1.60;;
30707;SDS011;17458;48.958;8.284;2023-09-30T04:24:17;4.90;;;2.53;;
30707;SDS011;17458;48.958;8.284;2023-09-30T04:27:03;3.92;;;3.00;;
30707;SDS011;17458;48.958;8.284;2023-09-30T04:29:49;1.95;;;1.80;;
30707;SDS011;17458;48.958;8.284;2023-09-30T04:32:35;2.17;;;1.95;;
30707;SDS011;17458;48.958;8.284;2023-09-30T04:35:20;3.60;;;1.92;;
30707;SDS011;17458;48.958;8.284;2023-09-30T04:38:05;3.65;;;1.85;;
30707;SDS011;17458;48.958;8.284;2023-09-30T04:40:49;3.20;;;2.00;;
30707;SDS011;17458;48.958;8.284;2023-09-30T04:43:35;2.47;;;2.08;;
30707;SDS011;17458;48.958;8.284;2023-09-30T04:46:21;3.67;;;1.90;;
30707;SDS011;17458;48.958;8.284;2023-09-30T04:49:07;2.78;;;2.00;;
30707;SDS011;17458;48.958;8.284;2023-09-30T04:51:51;5.30;;;2.85;;
30707;SDS011;17458;48.958;8.284;2023-09-30T04:54:35;5.15;;;2.63;;
30707;SDS011;17458;48.958;8.284;2023-09-30T04:57:19;4.60;;;2.63;;
30707;SDS011;17458;48.958;8.284;2023-09-30T05:00:04;3.90;;;2.42;;
30707;SDS011;17458;48.958;8.284;2023-09-30T05:02:55;6.38;;;3.17;;
30707;SDS011;17458;48.958;8.284;2023-09-30T05:05:39;4.80;;;2.40;;
30707;SDS011;17458;48.958;8.284;2023-09-30T05:08:23;3.05;;;1.98;;
30707;SDS011;17458;48.958;8.284;2023-09-30T05:11:08;3.58;;;1.98;;
30707;SDS011;17458;48.958;8.284;2023-09-30T05:13:52;3.28;;;1.92;;
30707;SDS011;17458;48.958;8.284;2023-09-30T05:16:36;6.60;;;2.15;;
30707;SDS011;17458;48.958;8.284;2023-09-30T05:19:20;8.05;;;2.15;;
30707;SDS011;17458;48.958;8.284;2023-09-30T05:22:04;4.63;;;2.30;;
30707;SDS011;17458;48.958;8.284;2023-09-30T05:24:50;4.70;;;3.10;;
30707;SDS011;17458;48.958;8.284;2023-09-30T05:27:36;5.57;;;3.05;;
30707;SDS011;17458;48.958;8.284;2023-09-30T05:30:21;9.20;;;3.10;;
30707;SDS011;17458;48.958;8.284;2023-09-30T05:33:05;5.45;;;3.42;;
30707;SDS011;17458;48.958;8.284;2023-09-30T05:35:49;8.20;;;4.15;;
30707;SDS011;17458;48.958;8.284;2023-09-30T05:38:33;6.95;;;4.30;;
30707;SDS011;17458;48.958;8.284;2023-09-30T05:41:17;7.60;;;3.70;;
30707;SDS011;17458;48.958;8.284;2023-09-30T05:44:01;6.03;;;3.60;;
30707;SDS011;17458;48.958;8.284;2023-09-30T05:46:45;10.07;;;3.30;;
30707;SDS011;17458;48.958;8.284;2023-09-30T05:49:29;4.75;;;3.35;;
30707;SDS011;17458;48.958;8.284;2023-09-30T05:52:13;8.70;;;4.10;;
30707;SDS011;17458;48.958;8.284;2023-09-30T05:54:57;6.97;;;3.65;;
30707;SDS011;17458;48.958;8.284;2023-09-30T05:57:41;4.35;;;3.47;;
30707;SDS011;17458;48.958;8.284;2023-09-30T06:00:26;9.65;;;3.90;;
30707;SDS011;17458;48.958;8.284;2023-09-30T06:03:14;9.23;;;3.42;;
30707;SDS011;17458;48.958;8.284;2023-09-30T06:05:58;5.65;;;3.97;;
30707;SDS011;17458;48.958;8.284;2023-09-30T06:08:43;5.00;;;3.63;;
30707;SDS011;17458;48.958;8.284;2023-09-30T06:11:29;7.90;;;3.90;;
30707;SDS011;17458;48.958;8.284;2023-09-30T06:14:12;8.65;;;4.45;;
30707;SDS011;17458;48.958;8.284;2023-09-30T06:16:57;8.73;;;3.67;;
30707;SDS011;17458;48.958;8.284;2023-09-30T06:19:41;8.50;;;4.22;;
30707;SDS011;17458;48.958;8.284;2023-09-30T06:22:25;6.20;;;3.90;;
30707;SDS011;17458;48.958;8.284;2023-09-30T06:25:10;8.13;;;4.80;;
30707;SDS011;17458;48.958;8.284;2023-09-30T06:27:54;5.22;;;3.75;;
30707;SDS011;17458;48.958;8.284;2023-09-30T06:30:39;7.55;;;4.00;;
30707;SDS011;17458;48.958;8.284;2023-09-30T06:33:25;4.47;;;3.22;;
30707;SDS011;17458;48.958;8.284;2023-09-30T06:36:13;6.32;;;3.65;;
30707;SDS011;17458;48.958;8.284;2023-09-30T06:38:57;7.80;;;3.75;;
30707;SDS011;17458;48.958;8.284;2023-09-30T06:41:42;7.80;;;3.88;;
30707;SDS011;17458;48.958;8.284;2023-09-30T06:44:28;8.82;;;3.95;;
30707;SDS011;17458;48.958;8.284;2023-09-30T06:47:14;8.30;;;4.18;;
30707;SDS011;17458;48.958;8.284;2023-09-30T06:50:00;13.90;;;4.50;;
30707;SDS011;17458;48.958;8.284;2023-09-30T06:53:01;10.80;;;4.53;;
30707;SDS011;17458;48.958;8.284;2023-09-30T06:55:45;6.03;;;4.00;;
30707;SDS011;17458;48.958;8.284;2023-09-30T06:58:30;9.35;;;3.95;;
30707;SDS011;17458;48.958;8.284;2023-09-30T07:01:17;7.63;;;3.72;;
30707;SDS011;17458;48.958;8.284;2023-09-30T07:04:01;7.70;;;4.05;;
30707;SDS011;17458;48.958;8.284;2023-09-30T07:06:45;6.72;;;4.03;;
30707;SDS011;17458;48.958;8.284;2023-09-30T07:09:29;9.30;;;4.40;;
30707;SDS011;17458;48.958;8.284;2023-09-30T07:12:13;8.20;;;4.47;;
30707;SDS011;17458;48.958;8.284;2023-09-30T07:14:58;4.68;;;3.38;;
30707;SDS011;17458;48.958;8.284;2023-09-30T07:17:42;6.20;;;3.42;;
30707;SDS011;17458;48.958;8.284;2023-09-30T07:20:27;7.03;;;3.72;;
30707;SDS011;17458;48.958;8.284;2023-09-30T07:23:12;8.13;;;4.45;;
30707;SDS011;17458;48.958;8.284;2023-09-30T07:25:57;8.20;;;4.68;;
30707;SDS011;17458;48.958;8.284;2023-09-30T07:28:41;9.07;;;3.67;;
30707;SDS011;17458;48.958;8.284;2023-09-30T07:31:25;7.07;;;4.18;;
30707;SDS011;17458;48.958;8.284;2023-09-30T07:34:09;10.88;;;3.95;;
30707;SDS011;17458;48.958;8.284;2023-09-30T07:36:53;7.85;;;4.22;;
30707;SDS011;17458;48.958;8.284;2023-09-30T07:39:39;9.35;;;4.25;;
30707;SDS011;17458;48.958;8.284;2023-09-30T07:42:23;8.23;;;4.07;;
30707;SDS011;17458;48.958;8.284;2023-09-30T07:45:07;9.85;;;4.03;;
30707;SDS011;17458;48.958;8.284;2023-09-30T07:47:52;14.05;;;4.18;;
30707;SDS011;17458;48.958;8.284;2023-09-30T07:50:36;6.20;;;3.85;;
30707;SDS011;17458;48.958;8.284;2023-09-30T07:53:21;8.43;;;5.25;;
30707;SDS011;17458;48.958;8.284;2023-09-30T07:56:06;13.70;;;5.72;;
30707;SDS011;17458;48.958;8.284;2023-09-30T07:58:50;9.40;;;5.00;;
30707;SDS011;17458;48.958;8.284;2023-09-30T08:01:34;12.55;;;5.43;;
30707;SDS011;17458;48.958;8.284;2023-09-30T08:04:18;11.73;;;4.65;;
30707;SDS011;17458;48.958;8.284;2023-09-30T08:07:03;14.05;;;5.95;;
30707;SDS011;17458;48.958;8.284;2023-09-30T08:09:47;13.80;;;6.05;;
30707;SDS011;17458;48.958;8.284;2023-09-30T08:12:31;8.60;;;5.50;;
30707;SDS011;17458;48.958;8.284;2023-09-30T08:15:16;10.50;;;5.75;;
30707;SDS011;17458;48.958;8.284;2023-09-30T08:18:00;12.70;;;6.03;;
30707;SDS011;17458;48.958;8.284;2023-09-30T08:20:46;16.73;;;6.38;;
30707;SDS011;17458;48.958;8.284;2023-09-30T08:23:30;15.30;;;6.20;;
30707;SDS011;17458;48.958;8.284;2023-09-30T08:26:15;11.15;;;6.15;;
30707;SDS011;17458;48.958;8.284;2023-09-30T08:28:59;20.15;;;6.43;;
30707;SDS011;17458;48.958;8.284;2023-09-30T08:31:42;11.40;;;6.05;;
30707;SDS011;17458;48.958;8.284;2023-09-30T08:34:26;11.77;;;5.88;;
30707;SDS011;17458;48.958;8.284;2023-09-30T08:37:10;12.68;;;5.85;;
30707;SDS011;17458;48.958;8.284;2023-09-30T08:39:55;13.75;;;6.07;;
30707;SDS011;17458;48.958;8.284;2023-09-30T08:42:39;16.83;;;5.80;;
30707;SDS011;17458;48.958;8.284;2023-09-30T08:45:27;8.88;;;4.90;;
30707;SDS011;17458;48.958;8.284;2023-09-30T08:48:11;9.80;;;4.70;;
30707;SDS011;17458;48.958;8.284;2023-09-30T08:50:55;12.30;;;5.15;;
30707;SDS011;17458;48.958;8.284;2023-09-30T08:53:42;12.63;;;4.85;;
30707;SDS011;17458;48.958;8.284;2023-09-30T08:56:29;14.98;;;5.13;;
30707;SDS011;17458;48.958;8.284;2023-09-30T08:59:14;10.02;;;3.92;;
30707;SDS011;17458;48.958;8.284;2023-09-30T09:01:59;10.70;;;4.35;;
30707;SDS011;17458;48.958;8.284;2023-09-30T09:04:44;6.05;;;3.88;;
30707;SDS011;17458;48.958;8.284;2023-09-30T09:07:29;12.02;;;4.78;;
30707;SDS011;17458;48.958;8.284;2023-09-30T09:10:14;10.43;;;4.53;;
30707;SDS011;17458;48.958;8.284;2023-09-30T09:12:58;9.55;;;4.50;;
30707;SDS011;17458;48.958;8.284;2023-09-30T09:15:43;9.35;;;4.72;;
30707;SDS011;17458;48.958;8.284;2023-09-30T09:18:33;13.52;;;4.40;;
30707;SDS011;17458;48.958;8.284;2023-09-30T09:21:18;7.95;;;4.03;;
30707;SDS011;17458;48.958;8.284;2023-09-30T09:24:04;10.75;;;5.18;;
30707;SDS011;17458;48.958;8.284;2023-09-30T09:26:48;9.02;;;4.63;;
30707;SDS011;17458;48.958;8.284;2023-09-30T09:29:33;13.60;;;4.55;;
30707;SDS011;17458;48.958;8.284;2023-09-30T09:32:21;12.80;;;4.32;;
30707;SDS011;17458;48.958;8.284;2023-09-30T09:35:06;10.18;;;3.75;;
30707;SDS011;17458;48.958;8.284;2023-09-30T09:37:57;10.57;;;5.00;;
30707;SDS011;17458;48.958;8.284;2023-09-30T09:40:42;9.77;;;4.57;;
30707;SDS011;17458;48.958;8.284;2023-09-30T09:43:27;9.90;;;4.25;;
30707;SDS011;17458;48.958;8.284;2023-09-30T09:46:14;11.85;;;4.05;;
30707;SDS011;17458;48.958;8.284;2023-09-30T09:49:00;12.20;;;3.28;;
30707;SDS011;17458;48.958;8.284;2023-09-30T09:51:45;9.57;;;4.13;;
30707;SDS011;17458;48.958;8.284;2023-09-30T09:54:30;10.52;;;4.10;;
30707;SDS011;17458;48.958;8.284;2023-09-30T09:57:16;9.10;;;3.17;;
30707;SDS011;17458;48.958;8.284;2023-09-30T10:00:02;5.68;;;3.78;;
30707;SDS011;17458;48.958;8.284;2023-09-30T10:02:53;10.10;;;3.33;;
30707;SDS011;17458;48.958;8.284;2023-09-30T10:05:38;10.05;;;3.35;;
30707;SDS011;17458;48.958;8.284;2023-09-30T10:08:28;7.25;;;3.65;;
30707;SDS011;17458;48.958;8.284;2023-09-30T10:11:17;10.93;;;3.10;;
30707;SDS011;17458;48.958;8.284;2023-09-30T10:14:02;8.65;;;3.75;;
30707;SDS011;17458;48.958;8.284;2023-09-30T10:16:55;8.38;;;3.15;;
30707;SDS011;17458;48.958;8.284;2023-09-30T10:22:56;8.57;;;3.42;;
30707;SDS011;17458;48.958;8.284;2023-09-30T10:28:58;7.28;;;3.30;;
30707;SDS011;17458;48.958;8.284;2023-09-30T10:31:52;9.88;;;3.83;;
30707;SDS011;17458;48.958;8.284;2023-09-30T10:34:36;6.43;;;3.20;;
30707;SDS011;17458;48.958;8.284;2023-09-30T10:37:21;17.98;;;3.70;;
30707;SDS011;17458;48.958;8.284;2023-09-30T10:40:10;11.50;;;4.13;;
30707;SDS011;17458;48.958;8.284;2023-09-30T10:43:28;7.70;;;3.45;;
30707;SDS011;17458;48.958;8.284;2023-09-30T10:49:14;5.65;;;3.10;;
30707;SDS011;17458;48.958;8.284;2023-09-30T10:52:07;9.13;;;3.50;;
30707;SDS011;17458;48.958;8.284;2023-09-30T10:54:52;6.95;;;2.83;;
30707;SDS011;17458;48.958;8.284;2023-09-30T10:57:36;7.88;;;2.78;;
30707;SDS011;17458;48.958;8.284;2023-09-30T11:00:22;8.43;;;3.03;;
30707;SDS011;17458;48.958;8.284;2023-09-30T11:03:10;8.73;;;3.55;;
30707;SDS011;17458;48.958;8.284;2023-09-30T11:05:55;11.00;;;3.58;;
30707;SDS011;17458;48.958;8.284;2023-09-30T11:08:40;5.50;;;2.58;;
30707;SDS011;17458;48.958;8.284;2023-09-30T11:14:31;7.95;;;3.40;;
30707;SDS011;17458;48.958;8.284;2023-09-30T11:17:15;8.55;;;3.33;;
30707;SDS011;17458;48.958;8.284;2023-09-30T11:20:06;5.57;;;2.92;;
30707;SDS011;17458;48.958;8.284;2023-09-30T11:22:51;6.43;;;2.83;;
30707;SDS011;17458;48.958;8.284;2023-09-30T11:25:35;12.15;;;2.97;;
30707;SDS011;17458;48.958;8.284;2023-09-30T11:28:21;5.85;;;2.83;;
30707;SDS011;17458;48.958;8.284;2023-09-30T11:31:07;10.93;;;3.10;;
30707;SDS011;17458;48.958;8.284;2023-09-30T11:33:56;5.82;;;2.85;;
30707;SDS011;17458;48.958;8.284;2023-09-30T11:36:52;8.32;;;3.30;;
30707;SDS011;17458;48.958;8.284;2023-09-30T11:39:36;6.65;;;2.60;;
30707;SDS011;17458;48.958;8.284;2023-09-30T11:42:20;6.75;;;3.58;;
30707;SDS011;17458;48.958;8.284;2023-09-30T11:45:18;6.43;;;2.47;;
30707;SDS011;17458;48.958;8.284;2023-09-30T11:48:16;9.85;;;2.72;;
30707;SDS011;17458;48.958;8.284;2023-09-30T11:51:03;10.00;;;2.60;;
30707;SDS011;17458;48.958;8.284;2023-09-30T11:53:47;10.90;;;3.22;;
30707;SDS011;17458;48.958;8.284;2023-09-30T11:56:40;5.57;;;2.72;;
30707;SDS011;17458;48.958;8.284;2023-09-30T11:59:25;4.32;;;2.45;;
30707;SDS011;17458;48.958;8.284;2023-09-30T12:02:10;6.93;;;3.17;;
30707;SDS011;17458;48.958;8.284;2023-09-30T12:04:54;5.68;;;2.50;;
30707;SDS011;17458;48.958;8.284;2023-09-30T12:07:39;7.38;;;2.83;;
30707;SDS011;17458;48.958;8.284;2023-09-30T12:10:25;12.43;;;3.40;;
30707;SDS011;17458;48.958;8.284;2023-09-30T12:13:09;10.18;;;3.35;;
30707;SDS011;17458;48.958;8.284;2023-09-30T12:15:55;6.20;;;2.95;;
30707;SDS011;17458;48.958;8.284;2023-09-30T12:18:41;6.82;;;3.30;;
30707;SDS011;17458;48.958;8.284;2023-09-30T12:21:25;10.02;;;2.97;;
30707;SDS011;17458;48.958;8.284;2023-09-30T12:24:09;7.53;;;2.95;;
30707;SDS011;17458;48.958;8.284;2023-09-30T12:26:53;10.85;;;3.33;;
30707;SDS011;17458;48.958;8.284;2023-09-30T12:29:38;8.35;;;3.20;;
30707;SDS011;17458;48.958;8.284;2023-09-30T12:32:22;8.30;;;3.65;;
30707;SDS011;17458;48.958;8.284;2023-09-30T12:35:07;7.35;;;3.22;;
30707;SDS011;17458;48.958;8.284;2023-09-30T12:37:51;6.80;;;3.33;;
30707;SDS011;17458;48.958;8.284;2023-09-30T12:40:35;7.40;;;3.03;;
30707;SDS011;17458;48.958;8.284;2023-09-30T12:43:19;10.38;;;2.95;;
30707;SDS011;17458;48.958;8.284;2023-09-30T12:46:04;8.02;;;3.50;;
30707;SDS011;17458;48.958;8.284;2023-09-30T12:48:51;7.78;;;2.92;;
30707;SDS011;17458;48.958;8.284;2023-09-30T12:51:35;9.48;;;3.30;;
30707;SDS011;17458;48.958;8.284;2023-09-30T12:54:22;9.00;;;3.88;;
30707;SDS011;17458;48.958;8.284;2023-09-30T12:57:06;8.18;;;3.17;;
30707;SDS011;17458;48.958;8.284;2023-09-30T12:59:51;8.98;;;3.17;;
30707;SDS011;17458;48.958;8.284;2023-09-30T13:02:35;8.32;;;3.33;;
30707;SDS011;17458;48.958;8.284;2023-09-30T13:05:19;8.88;;;3.65;;
30707;SDS011;17458;48.958;8.284;2023-09-30T13:08:04;4.65;;;2.50;;
30707;SDS011;17458;48.958;8.284;2023-09-30T13:10:48;13.20;;;3.80;;
30707;SDS011;17458;48.958;8.284;2023-09-30T13:13:33;7.57;;;3.20;;
30707;SDS011;17458;48.958;8.284;2023-09-30T13:16:19;11.45;;;3.97;;
30707;SDS011;17458;48.958;8.284;2023-09-30T13:19:03;7.43;;;3.10;;
30707;SDS011;17458;48.958;8.284;2023-09-30T13:21:48;12.23;;;3.70;;
30707;SDS011;17458;48.958;8.284;2023-09-30T13:24:34;6.63;;;3.45;;
30707;SDS011;17458;48.958;8.284;2023-09-30T13:27:23;9.48;;;3.88;;
30707;SDS011;17458;48.958;8.284;2023-09-30T13:30:07;6.60;;;3.50;;
30707;SDS011;17458;48.958;8.284;2023-09-30T13:32:51;8.05;;;3.38;;
30707;SDS011;17458;48.958;8.284;2023-09-30T13:35:35;7.72;;;3.40;;
30707;SDS011;17458;48.958;8.284;2023-09-30T13:38:20;10.95;;;4.78;;
30707;SDS011;17458;48.958;8.284;2023-09-30T13:41:04;8.38;;;3.72;;
30707;SDS011;17458;48.958;8.284;2023-09-30T13:43:48;8.10;;;3.45;;
30707;SDS011;17458;48.958;8.284;2023-09-30T13:46:32;10.63;;;3.20;;
30707;SDS011;17458;48.958;8.284;2023-09-30T13:49:16;9.27;;;3.67;;
30707;SDS011;17458;48.958;8.284;2023-09-30T13:52:01;6.55;;;2.80;;
30707;SDS011;17458;48.958;8.284;2023-09-30T13:54:45;6.18;;;2.90;;
30707;SDS011;17458;48.958;8.284;2023-09-30T13:57:29;7.70;;;3.25;;
30707;SDS011;17458;48.958;8.284;2023-09-30T14:00:14;8.57;;;3.85;;
30707;SDS011;17458;48.958;8.284;2023-09-30T14:03:00;8.50;;;3.58;;
30707;SDS011;17458;48.958;8.284;2023-09-30T14:05:44;9.40;;;3.75;;
30707;SDS011;17458;48.958;8.284;2023-09-30T14:08:29;8.65;;;3.10;;
30707;SDS011;17458;48.958;8.284;2023-09-30T14:11:13;8.73;;;3.50;;
30707;SDS011;17458;48.958;8.284;2023-09-30T14:13:57;8.90;;;4.18;;
30707;SDS011;17458;48.958;8.284;2023-09-30T14:16:41;11.43;;;3.75;;
30707;SDS011;17458;48.958;8.284;2023-09-30T14:19:26;10.10;;;3.63;;
30707;SDS011;17458;48.958;8.284;2023-09-30T14:22:12;7.32;;;3.95;;
30707;SDS011;17458;48.958;8.284;2023-09-30T14:24:56;7.70;;;3.53;;
30707;SDS011;17458;48.958;8.284;2023-09-30T14:27:40;11.23;;;3.42;;
30707;SDS011;17458;48.958;8.284;2023-09-30T14:30:24;9.30;;;3.83;;
30707;SDS011;17458;48.958;8.284;2023-09-30T14:33:08;8.75;;;3.30;;
30707;SDS011;17458;48.958;8.284;2023-09-30T14:35:52;11.35;;;4.30;;
30707;SDS011;17458;48.958;8.284;2023-09-30T14:38:36;10.52;;;4.60;;
30707;SDS011;17458;48.958;8.284;2023-09-30T14:41:21;10.18;;;3.45;;
30707;SDS011;17458;48.958;8.284;2023-09-30T14:44:05;9.40;;;3.22;;
30707;SDS011;17458;48.958;8.284;2023-09-30T14:46:51;8.88;;;4.47;;
30707;SDS011;17458;48.958;8.284;2023-09-30T14:49:36;12.70;;;3.90;;
30707;SDS011;17458;48.958;8.284;2023-09-30T14:52:20;7.78;;;3.85;;
30707;SDS011;17458;48.958;8.284;2023-09-30T14:55:03;10.18;;;4.13;;
30707;SDS011;17458;48.958;8.284;2023-09-30T14:57:48;9.27;;;3.88;;
30707;SDS011;17458;48.958;8.284;2023-09-30T15:00:32;9.38;;;3.85;;
30707;SDS011;17458;48.958;8.284;2023-09-30T15:03:16;11.70;;;4.13;;
30707;SDS011;17458;48.958;8.284;2023-09-30T15:06:00;10.23;;;4.40;;
30707;SDS011;17458;48.958;8.284;2023-09-30T15:08:45;10.80;;;4.55;;
30707;SDS011;17458;48.958;8.284;2023-09-30T15:11:29;7.45;;;4.18;;
30707;SDS011;17458;48.958;8.284;2023-09-30T15:14:13;11.00;;;3.97;;
30707;SDS011;17458;48.958;8.284;2023-09-30T15:16:57;9.43;;;3.83;;
30707;SDS011;17458;48.958;8.284;2023-09-30T15:19:41;6.85;;;3.50;;
30707;SDS011;17458;48.958;8.284;2023-09-30T15:22:26;7.10;;;3.63;;
30707;SDS011;17458;48.958;8.284;2023-09-30T15:25:10;10.45;;;3.55;;
30707;SDS011;17458;48.958;8.284;2023-09-30T15:27:54;11.25;;;5.72;;
30707;SDS011;17458;48.958;8.284;2023-09-30T15:30:38;6.82;;;4.13;;
30707;SDS011;17458;48.958;8.284;2023-09-30T15:33:23;11.38;;;3.97;;
30707;SDS011;17458;48.958;8.284;2023-09-30T15:39:00;11.48;;;4.82;;
30707;SDS011;17458;48.958;8.284;2023-09-30T15:41:45;16.10;;;8.27;;
30707;SDS011;17458;48.958;8.284;2023-09-30T15:44:29;12.57;;;4.07;;
30707;SDS011;17458;48.958;8.284;2023-09-30T15:47:13;9.77;;;3.85;;
30707;SDS011;17458;48.958;8.284;2023-09-30T15:49:57;12.40;;;4.28;;
30707;SDS011;17458;48.958;8.284;2023-09-30T15:52:41;7.30;;;3.38;;
30707;SDS011;17458;48.958;8.284;2023-09-30T15:55:25;11.20;;;4.07;;
30707;SDS011;17458;48.958;8.284;2023-09-30T15:58:09;6.43;;;3.10;;
30707;SDS011;17458;48.958;8.284;2023-09-30T16:00:52;12.50;;;4.03;;
30707;SDS011;17458;48.958;8.284;2023-09-30T16:03:36;7.07;;;3.92;;
30707;SDS011;17458;48.958;8.284;2023-09-30T16:06:20;11.55;;;4.47;;
30707;SDS011;17458;48.958;8.284;2023-09-30T16:09:04;9.05;;;4.82;;
30707;SDS011;17458;48.958;8.284;2023-09-30T16:11:49;13.38;;;4.53;;
30707;SDS011;17458;48.958;8.284;2023-09-30T16:14:33;10.48;;;4.05;;
30707;SDS011;17458;48.958;8.284;2023-09-30T16:17:17;8.82;;;4.40;;
30707;SDS011;17458;48.958;8.284;2023-09-30T16:20:03;10.50;;;3.95;;
30707;SDS011;17458;48.958;8.284;2023-09-30T16:22:52;11.50;;;4.35;;
30707;SDS011;17458;48.958;8.284;2023-09-30T16:25:37;12.10;;;4.32;;
30707;SDS011;17458;48.958;8.284;2023-09-30T16:28:21;7.25;;;4.00;;
30707;SDS011;17458;48.958;8.284;2023-09-30T16:31:05;13.05;;;4.15;;
30707;SDS011;17458;48.958;8.284;2023-09-30T16:33:49;10.15;;;4.35;;
30707;SDS011;17458;48.958;8.284;2023-09-30T16:36:36;9.13;;;3.45;;
30707;SDS011;17458;48.958;8.284;2023-09-30T16:39:21;11.18;;;4.50;;
30707;SDS011;17458;48.958;8.284;2023-09-30T16:42:05;9.18;;;3.80;;
30707;SDS011;17458;48.958;8.284;2023-09-30T16:44:49;10.63;;;4.05;;
30707;SDS011;17458;48.958;8.284;2023-09-30T16:47:34;6.78;;;3.53;;